sensor_id;sensor_type;location;lat;lon;timestamp;temperature;humidity
45693;DHT22;31402;44.752;-0.374;2022-10-16T00:01:46;20.10;99.90
45693;DHT22;31402;44.752;-0.374;2022-10-16T00:04:12;20.20;99.90
45693;DHT22;31402;44.752;-0.374;2022-10-16T00:06:38;20.10;99.90
45693;DHT22;31402;44.752;-0.374;2022-10-16T00:09:05;20.00;99.90
45693;DHT22;31402;44.752;-0.374;2022-10-16T00:11:35;20.10;99.90
45693;DHT22;31402;44.752;-0.374;2022-10-16T00:14:05;20.00;99.90
45693;DHT22;31402;44.752;-0.374;2022-10-16T00:16:31;20.00;99.90
45693;DHT22;31402;44.752;-0.374;2022-10-16T00:18:58;20.00;99.90
45693;DHT22;31402;44.752;-0.374;2022-10-16T00:21:25;19.90;99.90
45693;DHT22;31402;44.752;-0.374;2022-10-16T00:24:04;20.00;99.90
45693;DHT22;31402;44.752;-0.374;2022-10-16T00:26:32;20.10;99.90
45693;DHT22;31402;44.752;-0.374;2022-10-16T00:28:58;20.10;99.90
45693;DHT22;31402;44.752;-0.374;2022-10-16T00:31:24;20.10;99.90
45693;DHT22;31402;44.752;-0.374;2022-10-16T00:33:51;20.00;99.90
45693;DHT22;31402;44.752;-0.374;2022-10-16T00:36:19;19.90;99.90
45693;DHT22;31402;44.752;-0.374;2022-10-16T00:38:45;20.10;99.90
45693;DHT22;31402;44.752;-0.374;2022-10-16T00:41:16;20.20;99.90
45693;DHT22;31402;44.752;-0.374;2022-10-16T00:43:43;20.00;99.90
45693;DHT22;31402;44.752;-0.374;2022-10-16T00:46:15;19.80;99.90
45693;DHT22;31402;44.752;-0.374;2022-10-16T00:49:30;19.80;99.90
45693;DHT22;31402;44.752;-0.374;2022-10-16T00:51:37;19.80;99.90
45693;DHT22;31402;44.752;-0.374;2022-10-16T00:54:06;19.80;99.90
45693;DHT22;31402;44.752;-0.374;2022-10-16T00:56:34;19.80;99.90
45693;DHT22;31402;44.752;-0.374;2022-10-16T00:59:03;20.00;99.90
45693;DHT22;31402;44.752;-0.374;2022-10-16T01:01:30;20.10;99.90
45693;DHT22;31402;44.752;-0.374;2022-10-16T01:03:56;20.10;99.90
45693;DHT22;31402;44.752;-0.374;2022-10-16T01:14:40;19.70;99.90
45693;DHT22;31402;44.752;-0.374;2022-10-16T01:17:24;19.80;99.90
45693;DHT22;31402;44.752;-0.374;2022-10-16T01:23:15;20.00;99.90
45693;DHT22;31402;44.752;-0.374;2022-10-16T01:26:08;20.10;99.90
45693;DHT22;31402;44.752;-0.374;2022-10-16T01:28:52;20.10;99.90
45693;DHT22;31402;44.752;-0.374;2022-10-16T01:31:24;20.00;99.90
45693;DHT22;31402;44.752;-0.374;2022-10-16T01:34:22;19.90;99.90
45693;DHT22;31402;44.752;-0.374;2022-10-16T01:36:56;19.90;99.90
45693;DHT22;31402;44.752;-0.374;2022-10-16T01:39:26;19.70;99.90
45693;DHT22;31402;44.752;-0.374;2022-10-16T01:42:11;19.70;99.90
45693;DHT22;31402;44.752;-0.374;2022-10-16T01:44:39;19.80;99.90
45693;DHT22;31402;44.752;-0.374;2022-10-16T01:47:06;19.80;99.90
45693;DHT22;31402;44.752;-0.374;2022-10-16T01:49:35;19.80;99.90
45693;DHT22;31402;44.752;-0.374;2022-10-16T01:52:06;19.60;99.90
45693;DHT22;31402;44.752;-0.374;2022-10-16T01:54:35;19.60;99.90
45693;DHT22;31402;44.752;-0.374;2022-10-16T01:57:04;19.70;99.90
45693;DHT22;31402;44.752;-0.374;2022-10-16T01:59:35;19.80;99.90
45693;DHT22;31402;44.752;-0.374;2022-10-16T02:02:06;19.70;99.90
45693;DHT22;31402;44.752;-0.374;2022-10-16T02:04:38;19.60;99.90
45693;DHT22;31402;44.752;-0.374;2022-10-16T02:07:05;19.70;99.90
45693;DHT22;31402;44.752;-0.374;2022-10-16T02:09:35;19.50;99.90
45693;DHT22;31402;44.752;-0.374;2022-10-16T02:12:08;19.50;99.90
45693;DHT22;31402;44.752;-0.374;2022-10-16T02:14:38;19.60;99.90
45693;DHT22;31402;44.752;-0.374;2022-10-16T02:17:17;19.60;99.90
45693;DHT22;31402;44.752;-0.374;2022-10-16T02:19:44;19.80;99.90
45693;DHT22;31402;44.752;-0.374;2022-10-16T02:22:17;19.70;99.90
45693;DHT22;31402;44.752;-0.374;2022-10-16T02:24:57;19.60;99.90
45693;DHT22;31402;44.752;-0.374;2022-10-16T02:27:28;19.70;99.90
45693;DHT22;31402;44.752;-0.374;2022-10-16T02:30:05;19.70;99.90
45693;DHT22;31402;44.752;-0.374;2022-10-16T02:32:34;19.60;99.90
45693;DHT22;31402;44.752;-0.374;2022-10-16T02:35:01;19.60;99.90
45693;DHT22;31402;44.752;-0.374;2022-10-16T02:37:28;19.50;99.90
45693;DHT22;31402;44.752;-0.374;2022-10-16T02:39:56;19.70;99.90
45693;DHT22;31402;44.752;-0.374;2022-10-16T02:42:34;19.70;99.90
45693;DHT22;31402;44.752;-0.374;2022-10-16T02:45:00;19.60;99.90
45693;DHT22;31402;44.752;-0.374;2022-10-16T02:47:26;19.60;99.90
45693;DHT22;31402;44.752;-0.374;2022-10-16T02:49:53;19.60;99.90
45693;DHT22;31402;44.752;-0.374;2022-10-16T02:52:18;19.70;99.90
45693;DHT22;31402;44.752;-0.374;2022-10-16T02:54:44;19.70;99.90
45693;DHT22;31402;44.752;-0.374;2022-10-16T02:57:10;19.70;99.90
45693;DHT22;31402;44.752;-0.374;2022-10-16T02:59:36;19.70;99.90
45693;DHT22;31402;44.752;-0.374;2022-10-16T03:02:01;19.70;99.90
45693;DHT22;31402;44.752;-0.374;2022-10-16T03:04:27;19.70;99.90
45693;DHT22;31402;44.752;-0.374;2022-10-16T03:06:53;19.70;99.90
45693;DHT22;31402;44.752;-0.374;2022-10-16T03:09:18;19.60;99.90
45693;DHT22;31402;44.752;-0.374;2022-10-16T03:11:44;19.60;99.90
45693;DHT22;31402;44.752;-0.374;2022-10-16T03:14:10;19.50;99.90
45693;DHT22;31402;44.752;-0.374;2022-10-16T03:16:36;19.50;99.90
45693;DHT22;31402;44.752;-0.374;2022-10-16T03:19:02;19.50;99.90
45693;DHT22;31402;44.752;-0.374;2022-10-16T03:21:28;19.40;99.90
45693;DHT22;31402;44.752;-0.374;2022-10-16T03:23:54;19.50;99.90
45693;DHT22;31402;44.752;-0.374;2022-10-16T03:26:19;19.50;99.90
45693;DHT22;31402;44.752;-0.374;2022-10-16T03:28:45;19.50;99.90
45693;DHT22;31402;44.752;-0.374;2022-10-16T03:31:12;19.50;99.90
45693;DHT22;31402;44.752;-0.374;2022-10-16T03:33:37;19.50;99.90
45693;DHT22;31402;44.752;-0.374;2022-10-16T03:36:03;19.40;99.90
45693;DHT22;31402;44.752;-0.374;2022-10-16T03:38:29;19.40;99.90
45693;DHT22;31402;44.752;-0.374;2022-10-16T03:40:55;19.40;99.90
45693;DHT22;31402;44.752;-0.374;2022-10-16T03:43:20;19.40;99.90
45693;DHT22;31402;44.752;-0.374;2022-10-16T03:45:46;19.40;99.90
45693;DHT22;31402;44.752;-0.374;2022-10-16T03:48:12;19.40;99.90
45693;DHT22;31402;44.752;-0.374;2022-10-16T03:50:38;19.40;99.90
45693;DHT22;31402;44.752;-0.374;2022-10-16T03:53:03;19.40;99.90
45693;DHT22;31402;44.752;-0.374;2022-10-16T03:55:29;19.40;99.90
45693;DHT22;31402;44.752;-0.374;2022-10-16T03:57:55;19.30;99.90
45693;DHT22;31402;44.752;-0.374;2022-10-16T04:00:21;19.30;99.90
45693;DHT22;31402;44.752;-0.374;2022-10-16T04:02:46;19.30;99.90
45693;DHT22;31402;44.752;-0.374;2022-10-16T04:05:12;19.30;99.90
45693;DHT22;31402;44.752;-0.374;2022-10-16T04:07:38;19.30;99.90
45693;DHT22;31402;44.752;-0.374;2022-10-16T04:10:04;19.40;99.90
45693;DHT22;31402;44.752;-0.374;2022-10-16T04:12:30;19.40;99.90
45693;DHT22;31402;44.752;-0.374;2022-10-16T04:14:56;19.30;99.90
45693;DHT22;31402;44.752;-0.374;2022-10-16T04:17:21;19.30;99.90
45693;DHT22;31402;44.752;-0.374;2022-10-16T04:19:47;19.30;99.90
45693;DHT22;31402;44.752;-0.374;2022-10-16T04:22:13;19.30;99.90
45693;DHT22;31402;44.752;-0.374;2022-10-16T04:24:39;19.30;99.90
45693;DHT22;31402;44.752;-0.374;2022-10-16T04:27:04;19.30;99.90
45693;DHT22;31402;44.752;-0.374;2022-10-16T04:29:30;19.30;99.90
45693;DHT22;31402;44.752;-0.374;2022-10-16T04:31:56;19.30;99.90
45693;DHT22;31402;44.752;-0.374;2022-10-16T04:34:22;19.20;99.90
45693;DHT22;31402;44.752;-0.374;2022-10-16T04:36:48;19.30;99.90
45693;DHT22;31402;44.752;-0.374;2022-10-16T04:39:17;19.30;99.90
45693;DHT22;31402;44.752;-0.374;2022-10-16T04:41:42;19.30;99.90
45693;DHT22;31402;44.752;-0.374;2022-10-16T04:44:08;19.30;99.90
45693;DHT22;31402;44.752;-0.374;2022-10-16T04:46:34;19.20;99.90
45693;DHT22;31402;44.752;-0.374;2022-10-16T04:49:00;19.30;99.90
45693;DHT22;31402;44.752;-0.374;2022-10-16T04:51:25;19.20;99.90
45693;DHT22;31402;44.752;-0.374;2022-10-16T04:53:53;19.30;99.90
45693;DHT22;31402;44.752;-0.374;2022-10-16T04:56:19;19.20;99.90
45693;DHT22;31402;44.752;-0.374;2022-10-16T04:58:46;19.20;99.90
45693;DHT22;31402;44.752;-0.374;2022-10-16T05:01:13;19.20;99.90
45693;DHT22;31402;44.752;-0.374;2022-10-16T05:03:38;19.10;99.90
45693;DHT22;31402;44.752;-0.374;2022-10-16T05:06:07;19.10;99.90
45693;DHT22;31402;44.752;-0.374;2022-10-16T05:08:34;19.10;99.90
45693;DHT22;31402;44.752;-0.374;2022-10-16T05:11:00;19.10;99.90
45693;DHT22;31402;44.752;-0.374;2022-10-16T05:13:25;19.10;99.90
45693;DHT22;31402;44.752;-0.374;2022-10-16T05:15:51;19.00;99.90
45693;DHT22;31402;44.752;-0.374;2022-10-16T05:18:17;19.00;99.90
45693;DHT22;31402;44.752;-0.374;2022-10-16T05:20:43;19.00;99.90
45693;DHT22;31402;44.752;-0.374;2022-10-16T05:23:09;19.00;99.90
45693;DHT22;31402;44.752;-0.374;2022-10-16T05:25:36;19.00;99.90
45693;DHT22;31402;44.752;-0.374;2022-10-16T05:28:02;19.00;99.90
45693;DHT22;31402;44.752;-0.374;2022-10-16T05:30:28;19.00;99.90
45693;DHT22;31402;44.752;-0.374;2022-10-16T05:32:53;19.00;99.90
45693;DHT22;31402;44.752;-0.374;2022-10-16T05:35:20;18.90;99.90
45693;DHT22;31402;44.752;-0.374;2022-10-16T05:37:46;18.90;99.90
45693;DHT22;31402;44.752;-0.374;2022-10-16T05:40:13;18.90;99.90
45693;DHT22;31402;44.752;-0.374;2022-10-16T05:42:39;18.90;99.90
45693;DHT22;31402;44.752;-0.374;2022-10-16T05:45:06;18.80;99.90
45693;DHT22;31402;44.752;-0.374;2022-10-16T05:47:32;18.80;99.90
45693;DHT22;31402;44.752;-0.374;2022-10-16T05:49:58;18.80;99.90
45693;DHT22;31402;44.752;-0.374;2022-10-16T05:52:23;18.80;99.90
45693;DHT22;31402;44.752;-0.374;2022-10-16T05:54:49;18.80;99.90
45693;DHT22;31402;44.752;-0.374;2022-10-16T05:57:15;18.90;99.90
45693;DHT22;31402;44.752;-0.374;2022-10-16T05:59:41;18.90;99.90
45693;DHT22;31402;44.752;-0.374;2022-10-16T06:02:11;18.90;99.90
45693;DHT22;31402;44.752;-0.374;2022-10-16T06:04:38;18.80;99.90
45693;DHT22;31402;44.752;-0.374;2022-10-16T06:07:03;18.80;99.90
45693;DHT22;31402;44.752;-0.374;2022-10-16T06:09:29;18.80;99.90
45693;DHT22;31402;44.752;-0.374;2022-10-16T06:11:55;18.90;99.90
45693;DHT22;31402;44.752;-0.374;2022-10-16T06:14:21;18.80;99.90
45693;DHT22;31402;44.752;-0.374;2022-10-16T06:16:46;18.80;99.90
45693;DHT22;31402;44.752;-0.374;2022-10-16T06:19:12;18.80;99.90
45693;DHT22;31402;44.752;-0.374;2022-10-16T06:21:38;18.80;99.90
45693;DHT22;31402;44.752;-0.374;2022-10-16T06:24:04;18.80;99.90
45693;DHT22;31402;44.752;-0.374;2022-10-16T06:26:30;18.80;99.90
45693;DHT22;31402;44.752;-0.374;2022-10-16T06:28:58;18.80;99.90
45693;DHT22;31402;44.752;-0.374;2022-10-16T06:31:24;18.80;99.90
45693;DHT22;31402;44.752;-0.374;2022-10-16T06:33:56;19.00;99.90
45693;DHT22;31402;44.752;-0.374;2022-10-16T06:36:23;19.40;99.90
45693;DHT22;31402;44.752;-0.374;2022-10-16T06:38:49;19.60;99.90
45693;DHT22;31402;44.752;-0.374;2022-10-16T06:41:18;20.00;99.90
45693;DHT22;31402;44.752;-0.374;2022-10-16T06:43:45;20.40;99.90
45693;DHT22;31402;44.752;-0.374;2022-10-16T06:46:12;20.80;99.90
45693;DHT22;31402;44.752;-0.374;2022-10-16T06:48:38;21.30;99.90
45693;DHT22;31402;44.752;-0.374;2022-10-16T06:51:13;21.70;99.90
45693;DHT22;31402;44.752;-0.374;2022-10-16T06:53:45;22.10;99.90
45693;DHT22;31402;44.752;-0.374;2022-10-16T06:56:13;22.60;99.90
45693;DHT22;31402;44.752;-0.374;2022-10-16T06:58:39;23.00;99.30
45693;DHT22;31402;44.752;-0.374;2022-10-16T07:01:05;23.50;98.60
45693;DHT22;31402;44.752;-0.374;2022-10-16T07:03:32;24.00;97.90
45693;DHT22;31402;44.752;-0.374;2022-10-16T07:06:02;24.40;97.20
45693;DHT22;31402;44.752;-0.374;2022-10-16T07:08:31;24.70;96.70
45693;DHT22;31402;44.752;-0.374;2022-10-16T07:10:59;25.00;96.10
45693;DHT22;31402;44.752;-0.374;2022-10-16T07:13:25;25.30;95.80
45693;DHT22;31402;44.752;-0.374;2022-10-16T07:15:51;25.50;95.30
45693;DHT22;31402;44.752;-0.374;2022-10-16T07:18:16;25.60;95.10
45693;DHT22;31402;44.752;-0.374;2022-10-16T07:20:42;25.80;94.90
45693;DHT22;31402;44.752;-0.374;2022-10-16T07:23:08;25.80;94.80
45693;DHT22;31402;44.752;-0.374;2022-10-16T07:25:34;25.70;94.60
45693;DHT22;31402;44.752;-0.374;2022-10-16T07:27:59;25.30;94.90
45693;DHT22;31402;44.752;-0.374;2022-10-16T07:30:25;24.90;95.30
45693;DHT22;31402;44.752;-0.374;2022-10-16T07:32:51;24.60;95.50
45693;DHT22;31402;44.752;-0.374;2022-10-16T07:35:16;24.30;96.10
45693;DHT22;31402;44.752;-0.374;2022-10-16T07:37:46;23.90;96.80
45693;DHT22;31402;44.752;-0.374;2022-10-16T07:40:12;23.50;97.40
45693;DHT22;31402;44.752;-0.374;2022-10-16T07:42:38;23.30;97.70
45693;DHT22;31402;44.752;-0.374;2022-10-16T07:45:04;23.00;98.20
45693;DHT22;31402;44.752;-0.374;2022-10-16T07:47:30;22.80;98.90
45693;DHT22;31402;44.752;-0.374;2022-10-16T07:49:56;22.70;98.90
45693;DHT22;31402;44.752;-0.374;2022-10-16T07:52:22;22.50;99.40
45693;DHT22;31402;44.752;-0.374;2022-10-16T07:54:47;22.40;99.60
45693;DHT22;31402;44.752;-0.374;2022-10-16T07:57:13;22.30;99.70
45693;DHT22;31402;44.752;-0.374;2022-10-16T07:59:45;22.30;99.80
45693;DHT22;31402;44.752;-0.374;2022-10-16T08:02:11;22.10;99.90
45693;DHT22;31402;44.752;-0.374;2022-10-16T08:04:37;22.10;99.90
45693;DHT22;31402;44.752;-0.374;2022-10-16T08:07:03;22.00;99.90
45693;DHT22;31402;44.752;-0.374;2022-10-16T08:09:29;22.10;99.90
45693;DHT22;31402;44.752;-0.374;2022-10-16T08:11:55;22.30;99.90
45693;DHT22;31402;44.752;-0.374;2022-10-16T08:14:20;22.30;99.90
45693;DHT22;31402;44.752;-0.374;2022-10-16T08:16:46;22.40;99.90
45693;DHT22;31402;44.752;-0.374;2022-10-16T08:19:12;22.50;99.90
45693;DHT22;31402;44.752;-0.374;2022-10-16T08:21:37;22.50;99.90
45693;DHT22;31402;44.752;-0.374;2022-10-16T08:24:03;22.20;99.90
45693;DHT22;31402;44.752;-0.374;2022-10-16T08:26:29;22.10;99.90
45693;DHT22;31402;44.752;-0.374;2022-10-16T08:28:55;22.10;99.90
45693;DHT22;31402;44.752;-0.374;2022-10-16T08:31:21;22.50;99.90
45693;DHT22;31402;44.752;-0.374;2022-10-16T08:33:47;22.60;99.90
45693;DHT22;31402;44.752;-0.374;2022-10-16T08:36:14;22.70;99.90
45693;DHT22;31402;44.752;-0.374;2022-10-16T08:38:40;22.40;99.90
45693;DHT22;31402;44.752;-0.374;2022-10-16T08:48:58;22.50;99.90
45693;DHT22;31402;44.752;-0.374;2022-10-16T08:51:34;22.60;99.90
45693;DHT22;31402;44.752;-0.374;2022-10-16T08:54:05;22.80;99.90
45693;DHT22;31402;44.752;-0.374;2022-10-16T08:56:32;22.80;99.90
45693;DHT22;31402;44.752;-0.374;2022-10-16T08:58:59;22.80;99.90
45693;DHT22;31402;44.752;-0.374;2022-10-16T09:01:40;22.90;99.90
45693;DHT22;31402;44.752;-0.374;2022-10-16T09:04:44;23.20;99.60
45693;DHT22;31402;44.752;-0.374;2022-10-16T09:07:43;23.10;99.90
45693;DHT22;31402;44.752;-0.374;2022-10-16T09:13:01;23.20;99.90
45693;DHT22;31402;44.752;-0.374;2022-10-16T09:15:49;23.30;99.60
45693;DHT22;31402;44.752;-0.374;2022-10-16T09:18:48;23.00;99.90
45693;DHT22;31402;44.752;-0.374;2022-10-16T09:21:30;23.00;99.90
45693;DHT22;31402;44.752;-0.374;2022-10-16T09:24:23;23.10;99.90
45693;DHT22;31402;44.752;-0.374;2022-10-16T09:26:51;23.40;99.90
45693;DHT22;31402;44.752;-0.374;2022-10-16T09:29:18;23.50;99.50
45693;DHT22;31402;44.752;-0.374;2022-10-16T09:31:49;23.50;99.30
45693;DHT22;31402;44.752;-0.374;2022-10-16T09:34:30;23.30;99.40
45693;DHT22;31402;44.752;-0.374;2022-10-16T09:36:59;23.20;99.80
45693;DHT22;31402;44.752;-0.374;2022-10-16T09:39:27;23.50;99.60
45693;DHT22;31402;44.752;-0.374;2022-10-16T09:41:53;23.40;99.90
45693;DHT22;31402;44.752;-0.374;2022-10-16T09:44:24;23.40;99.90
45693;DHT22;31402;44.752;-0.374;2022-10-16T09:47:05;23.70;99.40
45693;DHT22;31402;44.752;-0.374;2022-10-16T09:49:32;23.70;99.30
45693;DHT22;31402;44.752;-0.374;2022-10-16T09:52:15;23.80;99.10
45693;DHT22;31402;44.752;-0.374;2022-10-16T09:54:55;23.70;99.90
45693;DHT22;31402;44.752;-0.374;2022-10-16T09:57:22;24.00;99.30
45693;DHT22;31402;44.752;-0.374;2022-10-16T09:59:51;24.20;98.80
45693;DHT22;31402;44.752;-0.374;2022-10-16T10:02:20;24.20;98.30
45693;DHT22;31402;44.752;-0.374;2022-10-16T10:04:52;24.30;98.80
45693;DHT22;31402;44.752;-0.374;2022-10-16T10:07:30;24.10;98.70
45693;DHT22;31402;44.752;-0.374;2022-10-16T10:10:00;23.90;99.30
45693;DHT22;31402;44.752;-0.374;2022-10-16T10:12:30;24.00;99.20
45693;DHT22;31402;44.752;-0.374;2022-10-16T10:15:07;24.10;99.00
45693;DHT22;31402;44.752;-0.374;2022-10-16T10:17:46;24.00;99.20
45693;DHT22;31402;44.752;-0.374;2022-10-16T10:20:22;24.00;99.40
45693;DHT22;31402;44.752;-0.374;2022-10-16T10:22:48;24.20;98.70
45693;DHT22;31402;44.752;-0.374;2022-10-16T10:28:17;24.30;98.70
45693;DHT22;31402;44.752;-0.374;2022-10-16T10:30:57;24.30;98.90
45693;DHT22;31402;44.752;-0.374;2022-10-16T10:33:32;24.40;98.50
45693;DHT22;31402;44.752;-0.374;2022-10-16T10:36:14;24.60;99.00
45693;DHT22;31402;44.752;-0.374;2022-10-16T10:44:11;25.10;98.50
45693;DHT22;31402;44.752;-0.374;2022-10-16T10:47:02;25.20;97.90
45693;DHT22;31402;44.752;-0.374;2022-10-16T10:55:15;25.10;97.30
45693;DHT22;31402;44.752;-0.374;2022-10-16T10:58:12;25.10;96.70
45693;DHT22;31402;44.752;-0.374;2022-10-16T11:11:50;25.70;95.10
45693;DHT22;31402;44.752;-0.374;2022-10-16T11:14:38;25.70;95.80
45693;DHT22;31402;44.752;-0.374;2022-10-16T11:17:31;25.70;95.60
45693;DHT22;31402;44.752;-0.374;2022-10-16T11:25:28;25.80;95.60
45693;DHT22;31402;44.752;-0.374;2022-10-16T11:28:14;25.80;95.20
45693;DHT22;31402;44.752;-0.374;2022-10-16T11:33:54;25.70;95.60
45693;DHT22;31402;44.752;-0.374;2022-10-16T11:36:25;25.70;95.70
45693;DHT22;31402;44.752;-0.374;2022-10-16T11:41:50;26.30;94.90
45693;DHT22;31402;44.752;-0.374;2022-10-16T11:50:02;26.10;94.20
45693;DHT22;31402;44.752;-0.374;2022-10-16T11:52:43;26.10;94.30
45693;DHT22;31402;44.752;-0.374;2022-10-16T11:55:16;26.20;94.20
45693;DHT22;31402;44.752;-0.374;2022-10-16T11:57:50;26.20;94.90
45693;DHT22;31402;44.752;-0.374;2022-10-16T12:01:01;26.30;94.20
45693;DHT22;31402;44.752;-0.374;2022-10-16T12:03:35;26.40;94.20
45693;DHT22;31402;44.752;-0.374;2022-10-16T12:06:22;26.40;93.30
45693;DHT22;31402;44.752;-0.374;2022-10-16T12:08:52;26.40;94.10
45693;DHT22;31402;44.752;-0.374;2022-10-16T12:16:38;26.40;93.60
45693;DHT22;31402;44.752;-0.374;2022-10-16T12:19:15;26.50;94.40
45693;DHT22;31402;44.752;-0.374;2022-10-16T12:21:43;26.60;94.10
45693;DHT22;31402;44.752;-0.374;2022-10-16T12:26:56;26.70;92.60
45693;DHT22;31402;44.752;-0.374;2022-10-16T12:29:39;26.60;93.00
45693;DHT22;31402;44.752;-0.374;2022-10-16T12:34:54;26.80;92.70
45693;DHT22;31402;44.752;-0.374;2022-10-16T12:39:47;26.80;92.30
45693;DHT22;31402;44.752;-0.374;2022-10-16T12:44:55;26.70;92.50
45693;DHT22;31402;44.752;-0.374;2022-10-16T12:49:58;26.60;92.00
45693;DHT22;31402;44.752;-0.374;2022-10-16T12:54:59;26.70;92.10
45693;DHT22;31402;44.752;-0.374;2022-10-16T13:28:07;27.40;91.00
45693;DHT22;31402;44.752;-0.374;2022-10-16T13:30:54;27.70;91.00
45693;DHT22;31402;44.752;-0.374;2022-10-16T13:35:57;27.80;91.50
45693;DHT22;31402;44.752;-0.374;2022-10-16T13:38:25;27.80;91.90
45693;DHT22;31402;44.752;-0.374;2022-10-16T13:41:12;27.80;91.50
45693;DHT22;31402;44.752;-0.374;2022-10-16T13:43:51;27.70;90.70
45693;DHT22;31402;44.752;-0.374;2022-10-16T13:46:20;27.70;91.10
45693;DHT22;31402;44.752;-0.374;2022-10-16T13:49:00;27.70;91.50
45693;DHT22;31402;44.752;-0.374;2022-10-16T13:51:27;27.70;90.40
45693;DHT22;31402;44.752;-0.374;2022-10-16T13:53:55;27.70;90.70
45693;DHT22;31402;44.752;-0.374;2022-10-16T13:56:25;27.70;90.70
45693;DHT22;31402;44.752;-0.374;2022-10-16T13:59:22;27.70;90.40
45693;DHT22;31402;44.752;-0.374;2022-10-16T14:01:48;27.70;90.20
45693;DHT22;31402;44.752;-0.374;2022-10-16T14:04:15;27.80;90.60
45693;DHT22;31402;44.752;-0.374;2022-10-16T14:06:44;27.70;90.80
45693;DHT22;31402;44.752;-0.374;2022-10-16T14:09:39;28.00;90.20
45693;DHT22;31402;44.752;-0.374;2022-10-16T14:12:10;28.20;90.10
45693;DHT22;31402;44.752;-0.374;2022-10-16T14:14:47;28.00;90.50
45693;DHT22;31402;44.752;-0.374;2022-10-16T14:17:31;28.00;90.00
45693;DHT22;31402;44.752;-0.374;2022-10-16T14:20:00;27.90;89.90
45693;DHT22;31402;44.752;-0.374;2022-10-16T14:24:58;27.90;89.90
45693;DHT22;31402;44.752;-0.374;2022-10-16T14:27:35;28.00;90.30
45693;DHT22;31402;44.752;-0.374;2022-10-16T14:32:41;28.20;89.80
45693;DHT22;31402;44.752;-0.374;2022-10-16T14:35:31;28.30;89.10
45693;DHT22;31402;44.752;-0.374;2022-10-16T14:37:58;28.40;88.40
45693;DHT22;31402;44.752;-0.374;2022-10-16T14:40:33;28.40;88.30
45693;DHT22;31402;44.752;-0.374;2022-10-16T14:43:01;28.20;88.40
45693;DHT22;31402;44.752;-0.374;2022-10-16T14:45:30;28.10;87.80
45693;DHT22;31402;44.752;-0.374;2022-10-16T14:48:14;28.20;88.00
45693;DHT22;31402;44.752;-0.374;2022-10-16T14:50:41;28.20;88.80
45693;DHT22;31402;44.752;-0.374;2022-10-16T14:53:11;28.10;89.90
45693;DHT22;31402;44.752;-0.374;2022-10-16T14:55:38;28.00;89.20
45693;DHT22;31402;44.752;-0.374;2022-10-16T14:58:04;28.00;88.90
45693;DHT22;31402;44.752;-0.374;2022-10-16T15:00:30;27.90;89.20
45693;DHT22;31402;44.752;-0.374;2022-10-16T15:02:56;28.10;89.20
45693;DHT22;31402;44.752;-0.374;2022-10-16T15:05:26;28.30;89.60
45693;DHT22;31402;44.752;-0.374;2022-10-16T15:07:54;28.30;90.10
45693;DHT22;31402;44.752;-0.374;2022-10-16T15:10:21;28.40;90.00
45693;DHT22;31402;44.752;-0.374;2022-10-16T15:12:47;28.30;90.50
45693;DHT22;31402;44.752;-0.374;2022-10-16T15:15:25;28.20;90.90
45693;DHT22;31402;44.752;-0.374;2022-10-16T15:17:53;28.20;91.00
45693;DHT22;31402;44.752;-0.374;2022-10-16T15:20:25;28.10;91.40
45693;DHT22;31402;44.752;-0.374;2022-10-16T15:22:50;28.20;91.10
45693;DHT22;31402;44.752;-0.374;2022-10-16T15:27:58;27.90;91.00
45693;DHT22;31402;44.752;-0.374;2022-10-16T15:30:24;27.80;90.90
45693;DHT22;31402;44.752;-0.374;2022-10-16T15:32:50;27.60;91.00
45693;DHT22;31402;44.752;-0.374;2022-10-16T15:35:15;27.50;90.90
45693;DHT22;31402;44.752;-0.374;2022-10-16T15:37:41;27.50;91.30
45693;DHT22;31402;44.752;-0.374;2022-10-16T15:40:08;27.60;91.10
45693;DHT22;31402;44.752;-0.374;2022-10-16T15:42:35;27.70;90.80
45693;DHT22;31402;44.752;-0.374;2022-10-16T15:45:01;27.80;90.90
45693;DHT22;31402;44.752;-0.374;2022-10-16T15:47:28;27.80;90.70
45693;DHT22;31402;44.752;-0.374;2022-10-16T15:49:54;27.90;91.00
45693;DHT22;31402;44.752;-0.374;2022-10-16T15:52:20;27.90;91.20
45693;DHT22;31402;44.752;-0.374;2022-10-16T15:54:45;28.00;90.70
45693;DHT22;31402;44.752;-0.374;2022-10-16T15:57:11;28.00;90.40
45693;DHT22;31402;44.752;-0.374;2022-10-16T15:59:37;28.00;90.40
45693;DHT22;31402;44.752;-0.374;2022-10-16T16:02:02;27.90;90.10
45693;DHT22;31402;44.752;-0.374;2022-10-16T16:04:31;27.80;90.50
45693;DHT22;31402;44.752;-0.374;2022-10-16T16:06:57;27.70;90.30
45693;DHT22;31402;44.752;-0.374;2022-10-16T16:09:23;27.80;90.10
45693;DHT22;31402;44.752;-0.374;2022-10-16T16:11:49;27.80;90.40
45693;DHT22;31402;44.752;-0.374;2022-10-16T16:14:16;27.70;90.60
45693;DHT22;31402;44.752;-0.374;2022-10-16T16:16:42;27.70;90.40
45693;DHT22;31402;44.752;-0.374;2022-10-16T16:19:08;27.70;90.30
45693;DHT22;31402;44.752;-0.374;2022-10-16T16:21:35;27.70;90.50
45693;DHT22;31402;44.752;-0.374;2022-10-16T16:24:00;27.60;90.30
45693;DHT22;31402;44.752;-0.374;2022-10-16T16:26:34;27.60;90.50
45693;DHT22;31402;44.752;-0.374;2022-10-16T16:29:03;27.40;90.50
45693;DHT22;31402;44.752;-0.374;2022-10-16T16:31:31;27.40;90.80
45693;DHT22;31402;44.752;-0.374;2022-10-16T16:33:57;27.30;91.00
45693;DHT22;31402;44.752;-0.374;2022-10-16T16:36:24;27.30;91.10
45693;DHT22;31402;44.752;-0.374;2022-10-16T16:38:50;27.30;91.10
45693;DHT22;31402;44.752;-0.374;2022-10-16T16:41:19;27.30;91.40
45693;DHT22;31402;44.752;-0.374;2022-10-16T16:43:46;27.30;91.30
45693;DHT22;31402;44.752;-0.374;2022-10-16T16:46:13;27.40;91.40
45693;DHT22;31402;44.752;-0.374;2022-10-16T16:48:39;27.20;91.70
45693;DHT22;31402;44.752;-0.374;2022-10-16T16:51:09;27.10;91.70
45693;DHT22;31402;44.752;-0.374;2022-10-16T16:53:35;27.00;91.90
45693;DHT22;31402;44.752;-0.374;2022-10-16T16:56:05;26.90;92.10
45693;DHT22;31402;44.752;-0.374;2022-10-16T16:58:31;26.90;92.10
45693;DHT22;31402;44.752;-0.374;2022-10-16T17:00:57;26.90;92.10
45693;DHT22;31402;44.752;-0.374;2022-10-16T17:03:30;26.80;92.20
45693;DHT22;31402;44.752;-0.374;2022-10-16T17:06:06;26.80;92.20
45693;DHT22;31402;44.752;-0.374;2022-10-16T17:08:34;26.80;92.30
45693;DHT22;31402;44.752;-0.374;2022-10-16T17:11:00;26.70;92.30
45693;DHT22;31402;44.752;-0.374;2022-10-16T17:13:31;26.70;92.80
45693;DHT22;31402;44.752;-0.374;2022-10-16T17:16:00;26.60;92.40
45693;DHT22;31402;44.752;-0.374;2022-10-16T17:18:26;26.50;92.60
45693;DHT22;31402;44.752;-0.374;2022-10-16T17:20:52;26.50;92.70
45693;DHT22;31402;44.752;-0.374;2022-10-16T17:23:19;26.50;92.60
45693;DHT22;31402;44.752;-0.374;2022-10-16T17:25:45;26.50;92.50
45693;DHT22;31402;44.752;-0.374;2022-10-16T17:28:12;26.50;92.60
45693;DHT22;31402;44.752;-0.374;2022-10-16T17:30:40;26.50;92.50
45693;DHT22;31402;44.752;-0.374;2022-10-16T17:33:07;26.40;92.60
45693;DHT22;31402;44.752;-0.374;2022-10-16T17:35:43;26.30;92.90
45693;DHT22;31402;44.752;-0.374;2022-10-16T17:38:10;26.30;92.70